AirNav   Pilot Hours Calculator
 
 1375 users online  

8AL7 Hazel Green Acres Airport
Hazel Green, Alabama, USA

GOING TO HAZEL GREEN?


FAA INFORMATION EFFECTIVE 28 FEBRUARY 2019

Location

FAA Identifier: 8AL7
Lat/Long: 34-58-49.7000N / 086-41-32.3000W
34-58.828333N / 086-41.538333W
34.9804722 / -86.6923056
(estimated)
Elevation: 908 ft. / 277 m (estimated)
From city: 7 miles NW of HAZEL GREEN, AL
Time zone: UTC -6 (UTC -5 during Daylight Saving Time)
Zip code: 35739

Airport Operations

Airport use: Private use. Permission required prior to landing
Activation date: 03/2017
Control tower: no
ARTCC: MEMPHIS CENTER
FSS: ANNISTON FLIGHT SERVICE STATION
Attendance: 
Wind indicator: yes
Segmented circle: no

Airport Communications

WX AWOS-3 at FYM (8 nm NE): 135.275 (931-433-5916)
WX AWOS-3PT at MDQ (10 nm SE): 120.000 (256-829-1242)

Nearby radio navigation aids

VOR radial/distance  VOR name  Freq  Var
RQZr343/11.4ROCKET VORTAC112.2002E
DCUr032/23.4DECATUR VOR/DME112.8001W
SYIr201/37.0SHELBYVILLE VOR/DME109.0001W

 
NDB name  Hdg/Dist  Freq  Var  ID
REDSTONE003/16.928704WHUA .... ..- .-
BURWI220/36.333203WULH ..- .-.. ....

Airport Services

Runway Information

Runway 9/27

Dimensions: 1000 x 100 ft. / 305 x 30 m
Surface: turf
RUNWAY 9  RUNWAY 27
Traffic pattern: leftleft
Obstructions: 30 ft. trees30 ft. trees

Airport Ownership and Management from official FAA records

Ownership: Privately-owned
Owner: JAMES RUSSELL ISAACS
2397 CARTER GROVE RD
HAZEL GREEN, AL 35750
Phone 2568135287
Manager: JAMES RUSSELL ISAACS
2397 CARTER GROVE RD
HAZEL GREEN, AL 35750
Phone 2568135287

Airport Operational Statistics

Aircraft based on the field: 1
Single engine airplanes: 1
    

Additional Remarks

CAUTION; POSSIBLE AIRCRAFT OPS IMMEDIATE VIC INCLUDING CROP DUSTING AND ADJACENT PRIVATE TURF RWY 0.3NM EAST OF DEP END RWY 09

Instrument Procedures

There are no published instrument procedures at 8AL7.

Some nearby airports with instrument procedures:

KFYM - Fayetteville Municipal Airport (8 nm NE)
KMDQ - Huntsville Executive Airport / Tom Sharp Jr Field (10 nm SE)
KHUA - Redstone Army Airfield (18 nm S)
KGZS - Abernathy Field Airport (21 nm NW)
KHSV - Huntsville International Airport-Carl T Jones Field (21 nm S)
 
Loc | Ops | Rwys | IFR | FBO | Links
Com | Nav | Svcs | Stats | Notes
Aerial photo
No photo
 
Airport distance calculator
Flying to Hazel Green Acres Airport? Find the distance to fly.

From to 8AL7

Sunrise and sunset
Times for 22-Mar-2019
 Local
(UTC-5)
 Zulu
(UTC)
Morning civil twilight06:2311:23
Sunrise06:4911:49
Sunset18:5923:59
Evening civil twilight19:2400:24

Current date and time
Zulu (UTC)  22-Mar-2019 14:47:47
Local (UTC-5)  22-Mar-2019 09:47:47
 
METAR
KFYM 
8nm NE 
221425Z AUTO 27006KT 10SM CLR 08/02 A3014 RMK A01
KMDQ 
10nm SE 
221435Z AUTO 29009KT 10SM CLR 09/01 A3016 RMK A02 T00890013
KHUA 
18nm S 
221258Z AUTO 00000KT 10SM CLR 02/01 A3013 RMK AO2 SLP206 T00240005
TAF
NOTAMs
Click for the latest NOTAMs
NOTAMs are issued by the DoD/FAA and will open in a separate window not controlled by AirNav.

 

 
 

Would you like to see your business listed on this page?

 If your business provides an interesting product or service to pilots, flight crews, aircraft, or users of the Hazel Green Acres Airport, you should consider listing it here.  To start the listing process, click on the button below
 
Add a business
 

Other Pages about Hazel Green Acres Airport

Update a link
 
Copyright © AirNav, LLC. All rights reserved. Privacy Policy  Contact